Time;durP1;ratioP1;P1;durP2;ratioP2;P2;SDS_P1;SDS_P2;PMS_P1;PMS_P2;Temp;Humidity;BMP_temperature;BMP_pressure;BME280_temperature;BME280_humidity;BME280_pressure;Samples;Min_cycle;Max_cycle;Signal;HPM_P1;HPM_P2
2023/12/26 00:01:14;;;;;;;0.90;0.40;;;;;;;;;;5027187;28;20417;-69
2023/12/26 00:03:41;;;;;;;1.63;0.40;;;;;;;;;;5025405;28;20909;-69
2023/12/26 00:06:08;;;;;;;0.80;0.40;;;;;;;;;;5031361;28;20437;-70
2023/12/26 00:08:35;;;;;;;0.90;0.30;;;;;;;;;;5028915;28;20977;-70
2023/12/26 00:11:03;;;;;;;1.00;0.40;;;;;;;;;;5035640;28;20429;-70
2023/12/26 00:13:30;;;;;;;0.80;0.40;;;;;;;;;;5024507;28;20506;-69
2023/12/26 00:15:58;;;;;;;1.20;0.30;;;;;;;;;;5032594;28;20729;-69
2023/12/26 00:18:25;;;;;;;0.80;0.30;;;;;;;;;;5033749;28;20421;-70
2023/12/26 00:20:53;;;;;;;1.08;0.40;;;;;;;;;;5031512;28;21001;-70
2023/12/26 00:23:20;;;;;;;0.90;0.40;;;;;;;;;;5033372;28;20443;-71
2023/12/26 00:25:48;;;;;;;1.80;0.40;;;;;;;;;;5028719;28;20421;-71
2023/12/26 00:28:17;;;;;;;1.10;0.40;;;;;;;;;;5025639;28;20425;-71
2023/12/26 00:30:44;;;;;;;1.00;0.40;;;;;;;;;;5029351;28;20424;-71
2023/12/26 00:33:13;;;;;;;0.90;0.38;;;;;;;;;;5029820;28;20419;-70
2023/12/26 00:35:40;;;;;;;0.90;0.30;;;;;;;;;;5036275;28;20492;-70
2023/12/26 00:38:07;;;;;;;0.90;0.60;;;;;;;;;;5062701;22;20808;-68
2023/12/26 00:40:36;;;;;;;0.80;0.30;;;;;;;;;;5045220;28;20508;-67
2023/12/26 00:43:03;;;;;;;0.85;0.40;;;;;;;;;;5044602;28;20424;-68
2023/12/26 00:45:30;;;;;;;1.20;0.50;;;;;;;;;;5046637;28;20915;-68
2023/12/26 00:47:57;;;;;;;0.70;0.30;;;;;;;;;;5046087;28;20419;-67
2023/12/26 00:50:26;;;;;;;1.20;0.40;;;;;;;;;;5036403;28;20419;-68
2023/12/26 00:52:53;;;;;;;0.80;0.40;;;;;;;;;;5031211;28;20466;-68
2023/12/26 00:55:20;;;;;;;0.70;0.30;;;;;;;;;;5027909;28;20808;-67
2023/12/26 00:57:47;;;;;;;1.10;0.40;;;;;;;;;;5028248;28;20415;-68
2023/12/26 01:00:15;;;;;;;0.80;0.40;;;;;;;;;;5034810;28;20423;-66
2023/12/26 01:02:42;;;;;;;0.73;0.40;;;;;;;;;;5029075;28;20419;-67
2023/12/26 01:05:10;;;;;;;1.10;0.43;;;;;;;;;;5032060;28;20422;-67
2023/12/26 01:07:38;;;;;;;0.90;0.40;;;;;;;;;;5026442;28;20492;-67
2023/12/26 01:10:07;;;;;;;1.00;0.47;;;;;;;;;;5029104;28;20415;-67
2023/12/26 01:12:34;;;;;;;1.60;0.50;;;;;;;;;;5031947;28;20874;-67
2023/12/26 01:15:01;;;;;;;0.90;0.40;;;;;;;;;;5035814;28;20468;-68
2023/12/26 01:17:28;;;;;;;0.90;0.50;;;;;;;;;;5027320;28;20419;-67
2023/12/26 01:19:55;;;;;;;1.40;0.40;;;;;;;;;;5026753;28;20461;-68
2023/12/26 01:22:22;;;;;;;0.90;0.50;;;;;;;;;;5025632;28;20457;-67
2023/12/26 01:24:51;;;;;;;1.15;0.55;;;;;;;;;;5028059;28;20429;-67
2023/12/26 01:27:18;;;;;;;1.20;0.50;;;;;;;;;;5029211;28;20925;-68
2023/12/26 01:29:46;;;;;;;1.50;0.40;;;;;;;;;;5028101;28;20415;-69
2023/12/26 01:32:13;;;;;;;1.75;0.40;;;;;;;;;;5028210;28;20415;-67
2023/12/26 01:34:40;;;;;;;1.60;0.47;;;;;;;;;;5021940;28;20427;-68
2023/12/26 01:37:07;;;;;;;0.97;0.30;;;;;;;;;;5026027;28;20477;-68
2023/12/26 01:39:34;;;;;;;0.70;0.30;;;;;;;;;;5027064;28;20435;-68
2023/12/26 01:42:03;;;;;;;0.88;0.40;;;;;;;;;;5028853;28;20415;-68
2023/12/26 01:44:30;;;;;;;0.90;0.40;;;;;;;;;;5028430;28;20512;-68
2023/12/26 01:46:57;;;;;;;0.80;0.40;;;;;;;;;;5037029;28;20848;-69
2023/12/26 01:49:24;;;;;;;1.80;0.40;;;;;;;;;;5027263;28;20438;-69
2023/12/26 01:51:52;;;;;;;0.80;0.40;;;;;;;;;;5025526;28;20512;-67
2023/12/26 01:54:19;;;;;;;0.82;0.40;;;;;;;;;;5027581;28;20423;-68
2023/12/26 01:56:47;;;;;;;1.30;0.40;;;;;;;;;;5033750;28;20522;-67
2023/12/26 01:59:16;;;;;;;0.80;0.30;;;;;;;;;;5030803;28;20421;-67
2023/12/26 02:01:43;;;;;;;0.80;0.40;;;;;;;;;;5026600;28;20418;-69
2023/12/26 02:04:10;;;;;;;1.00;0.40;;;;;;;;;;5031531;28;21103;-68
2023/12/26 02:06:39;;;;;;;1.20;0.40;;;;;;;;;;5025037;28;20928;-68
2023/12/26 02:09:08;;;;;;;1.00;0.40;;;;;;;;;;5025827;28;20437;-69
2023/12/26 02:11:37;;;;;;;0.80;0.40;;;;;;;;;;5027043;28;20442;-68
2023/12/26 02:14:05;;;;;;;2.20;0.50;;;;;;;;;;5027625;28;20465;-68
2023/12/26 02:16:35;;;;;;;1.00;0.50;;;;;;;;;;5027105;28;20435;-68
2023/12/26 02:19:02;;;;;;;1.23;0.43;;;;;;;;;;5027586;28;20438;-68
2023/12/26 02:21:29;;;;;;;2.53;0.40;;;;;;;;;;5025636;28;20422;-68
2023/12/26 02:23:58;;;;;;;1.10;0.40;;;;;;;;;;5026471;28;20446;-68
2023/12/26 02:26:26;;;;;;;1.10;0.47;;;;;;;;;;5026805;28;20437;-66
2023/12/26 02:28:53;;;;;;;1.00;0.70;;;;;;;;;;5027184;28;20467;-68
2023/12/26 02:31:21;;;;;;;1.10;0.50;;;;;;;;;;5027381;28;20470;-68
2023/12/26 02:33:49;;;;;;;1.35;0.40;;;;;;;;;;5027508;28;20418;-68
2023/12/26 02:36:16;;;;;;;1.83;0.40;;;;;;;;;;5025930;28;20517;-69
2023/12/26 02:38:43;;;;;;;1.50;0.50;;;;;;;;;;5022191;28;20430;-68
2023/12/26 02:41:11;;;;;;;1.90;0.50;;;;;;;;;;5021277;28;20908;-68
2023/12/26 02:43:39;;;;;;;1.00;0.40;;;;;;;;;;5026236;28;20434;-68
2023/12/26 02:46:06;;;;;;;1.30;0.40;;;;;;;;;;5023822;28;20409;-68
2023/12/26 02:48:33;;;;;;;0.90;0.40;;;;;;;;;;5025039;28;20411;-66
2023/12/26 02:51:00;;;;;;;1.55;0.50;;;;;;;;;;5034135;28;20418;-69
2023/12/26 02:53:27;;;;;;;1.20;0.40;;;;;;;;;;5025219;28;20806;-68
2023/12/26 02:55:54;;;;;;;0.95;0.40;;;;;;;;;;5026934;28;20437;-68
2023/12/26 02:58:23;;;;;;;1.38;0.40;;;;;;;;;;5028777;28;20762;-68
2023/12/26 03:00:50;;;;;;;1.23;0.50;;;;;;;;;;5031211;28;20428;-68
2023/12/26 03:03:17;;;;;;;2.20;0.60;;;;;;;;;;5028422;28;20429;-67
2023/12/26 03:05:44;;;;;;;2.05;0.50;;;;;;;;;;5034639;28;20974;-68
2023/12/26 03:08:11;;;;;;;1.10;0.47;;;;;;;;;;5027599;28;20439;-69
2023/12/26 03:10:38;;;;;;;1.58;0.50;;;;;;;;;;5025526;28;20439;-68
2023/12/26 03:13:05;;;;;;;1.85;0.50;;;;;;;;;;5027034;28;20415;-67
2023/12/26 03:15:34;;;;;;;2.05;1.00;;;;;;;;;;5027325;28;20901;-68
2023/12/26 03:18:01;;;;;;;1.38;0.40;;;;;;;;;;5026362;28;20422;-67
2023/12/26 03:20:29;;;;;;;1.40;0.60;;;;;;;;;;5026357;28;20593;-68
2023/12/26 03:22:56;;;;;;;1.90;0.50;;;;;;;;;;5025736;28;20492;-68
2023/12/26 03:25:23;;;;;;;1.65;1.10;;;;;;;;;;5026502;28;20908;-68
2023/12/26 03:27:50;;;;;;;1.90;0.60;;;;;;;;;;5026370;28;20419;-67
2023/12/26 03:30:17;;;;;;;1.77;0.50;;;;;;;;;;5025566;28;20442;-67
2023/12/26 03:32:46;;;;;;;1.20;0.50;;;;;;;;;;5022924;28;20425;-67
2023/12/26 03:35:13;;;;;;;0.80;0.33;;;;;;;;;;5033963;28;20437;-68
2023/12/26 03:37:40;;;;;;;1.50;0.40;;;;;;;;;;5023524;28;20952;-68
2023/12/26 03:40:08;;;;;;;1.30;0.50;;;;;;;;;;5026937;28;20411;-67
2023/12/26 03:42:35;;;;;;;2.20;0.50;;;;;;;;;;5026698;28;20418;-68
2023/12/26 03:45:02;;;;;;;1.10;0.50;;;;;;;;;;5024227;28;20415;-67
2023/12/26 03:47:30;;;;;;;1.67;0.65;;;;;;;;;;5034506;28;20418;-66
2023/12/26 03:49:58;;;;;;;1.30;0.50;;;;;;;;;;5029348;28;20439;-68
2023/12/26 03:52:25;;;;;;;1.50;0.50;;;;;;;;;;5028874;28;20515;-67
2023/12/26 03:54:53;;;;;;;1.23;0.50;;;;;;;;;;5030126;28;20928;-67
2023/12/26 03:57:20;;;;;;;1.98;0.50;;;;;;;;;;5029500;28;20434;-68
2023/12/26 03:59:47;;;;;;;1.75;0.50;;;;;;;;;;5030151;28;20440;-68
2023/12/26 04:02:14;;;;;;;0.90;0.40;;;;;;;;;;5038370;28;20908;-68
2023/12/26 04:04:41;;;;;;;0.90;0.60;;;;;;;;;;5026416;28;20437;-68
2023/12/26 04:07:10;;;;;;;1.35;0.50;;;;;;;;;;5028599;28;20430;-66
2023/12/26 04:09:37;;;;;;;1.50;0.50;;;;;;;;;;5029043;28;20800;-68
2023/12/26 04:12:04;;;;;;;1.30;0.70;;;;;;;;;;5030068;28;20490;-69
2023/12/26 04:14:31;;;;;;;1.50;0.50;;;;;;;;;;5028820;28;20426;-66
2023/12/26 04:16:58;;;;;;;1.00;0.50;;;;;;;;;;5029390;28;20766;-68
2023/12/26 04:19:26;;;;;;;0.88;0.40;;;;;;;;;;5029382;28;20508;-68
2023/12/26 04:21:53;;;;;;;0.80;0.40;;;;;;;;;;5029016;28;20435;-68
2023/12/26 04:24:21;;;;;;;1.10;0.40;;;;;;;;;;5028911;28;20441;-68
2023/12/26 04:26:49;;;;;;;1.00;0.40;;;;;;;;;;5033918;28;20705;-68
2023/12/26 04:29:16;;;;;;;1.20;0.50;;;;;;;;;;5029021;28;20449;-69
2023/12/26 04:31:43;;;;;;;0.90;0.50;;;;;;;;;;5029528;28;20411;-67
2023/12/26 04:34:10;;;;;;;1.17;0.50;;;;;;;;;;5027522;28;20931;-67
2023/12/26 04:36:37;;;;;;;1.00;0.57;;;;;;;;;;5027582;28;20439;-66
2023/12/26 04:39:05;;;;;;;1.10;0.50;;;;;;;;;;5028949;28;20490;-67
2023/12/26 04:41:33;;;;;;;2.60;0.50;;;;;;;;;;5029632;28;20901;-67
2023/12/26 04:44:00;;;;;;;1.20;0.60;;;;;;;;;;5029223;28;20433;-68
2023/12/26 04:46:27;;;;;;;1.20;0.50;;;;;;;;;;5029904;28;20431;-69
2023/12/26 04:48:54;;;;;;;1.70;0.45;;;;;;;;;;5029166;28;20418;-68
2023/12/26 04:51:22;;;;;;;2.20;0.70;;;;;;;;;;5029397;28;20680;-68
2023/12/26 04:53:49;;;;;;;1.83;0.65;;;;;;;;;;5031528;28;20439;-68
2023/12/26 04:56:17;;;;;;;1.80;0.60;;;;;;;;;;5029498;28;20483;-68
2023/12/26 04:58:47;;;;;;;0.90;0.40;;;;;;;;;;5031118;28;20414;-67
2023/12/26 05:01:14;;;;;;;1.40;0.50;;;;;;;;;;5032238;28;20504;-67
2023/12/26 05:03:41;;;;;;;0.93;0.60;;;;;;;;;;5021824;28;20453;-66
2023/12/26 05:06:08;;;;;;;1.95;0.55;;;;;;;;;;5028911;28;20411;-67
2023/12/26 05:08:36;;;;;;;1.55;0.50;;;;;;;;;;5027104;28;20435;-66
2023/12/26 05:11:03;;;;;;;0.90;0.60;;;;;;;;;;5029262;28;20712;-67
2023/12/26 05:13:30;;;;;;;1.80;0.70;;;;;;;;;;5028508;28;21856;-67
2023/12/26 05:16:02;;;;;;;1.90;0.80;;;;;;;;;;5025780;28;20506;-68
2023/12/26 05:18:29;;;;;;;1.33;0.80;;;;;;;;;;5026132;28;20446;-67
2023/12/26 05:20:56;;;;;;;1.67;0.60;;;;;;;;;;5029159;28;20421;-66
2023/12/26 05:23:23;;;;;;;1.95;0.70;;;;;;;;;;5027067;28;20813;-67
2023/12/26 05:25:50;;;;;;;2.40;0.80;;;;;;;;;;5028632;28;20474;-67
2023/12/26 05:28:17;;;;;;;1.20;0.80;;;;;;;;;;5030000;28;20952;-67
2023/12/26 05:30:44;;;;;;;1.52;1.00;;;;;;;;;;5027432;28;20415;-67
2023/12/26 05:33:13;;;;;;;1.98;0.70;;;;;;;;;;5028530;28;20423;-67
2023/12/26 05:35:40;;;;;;;2.58;1.10;;;;;;;;;;5028548;28;20804;-68
2023/12/26 05:38:07;;;;;;;2.28;0.80;;;;;;;;;;5026379;28;20439;-67
2023/12/26 05:40:34;;;;;;;1.20;0.80;;;;;;;;;;5028080;28;20762;-67
2023/12/26 05:43:01;;;;;;;1.65;0.80;;;;;;;;;;5028868;28;20423;-68
2023/12/26 05:45:30;;;;;;;3.10;0.90;;;;;;;;;;5027338;28;20419;-68
2023/12/26 05:47:57;;;;;;;2.92;0.95;;;;;;;;;;5036831;28;20907;-68
2023/12/26 05:50:26;;;;;;;2.20;1.00;;;;;;;;;;5030779;28;20441;-68
2023/12/26 05:52:53;;;;;;;2.00;0.95;;;;;;;;;;5026934;28;20797;-67
2023/12/26 05:55:20;;;;;;;2.35;0.73;;;;;;;;;;5027853;28;20423;-68
2023/12/26 05:57:47;;;;;;;1.60;0.90;;;;;;;;;;5027641;28;20516;-68
2023/12/26 06:00:15;;;;;;;2.25;0.80;;;;;;;;;;5026026;28;20447;-68
2023/12/26 06:02:43;;;;;;;4.30;1.10;;;;;;;;;;5028273;28;20542;-68
2023/12/26 06:05:10;;;;;;;2.50;0.80;;;;;;;;;;5027193;28;20477;-68
2023/12/26 06:07:38;;;;;;;2.77;0.80;;;;;;;;;;5026584;28;20419;-68
2023/12/26 06:10:06;;;;;;;3.20;1.10;;;;;;;;;;5027286;28;20517;-68
2023/12/26 06:12:33;;;;;;;1.50;0.80;;;;;;;;;;5029415;28;20441;-68
2023/12/26 06:15:00;;;;;;;1.40;0.70;;;;;;;;;;5028837;28;20902;-68
2023/12/26 06:17:27;;;;;;;2.90;1.00;;;;;;;;;;5026331;28;20438;-68
2023/12/26 06:19:54;;;;;;;2.30;0.90;;;;;;;;;;5027095;28;20921;-67
2023/12/26 06:22:21;;;;;;;2.03;0.82;;;;;;;;;;5026539;28;20419;-67
2023/12/26 06:24:50;;;;;;;3.20;1.10;;;;;;;;;;5026762;28;20542;-67
2023/12/26 06:27:18;;;;;;;2.60;1.00;;;;;;;;;;5027183;28;20421;-67
2023/12/26 06:29:45;;;;;;;1.90;1.00;;;;;;;;;;5027361;28;20494;-67
2023/12/26 06:32:12;;;;;;;3.13;1.10;;;;;;;;;;5023823;28;20924;-67
2023/12/26 06:34:39;;;;;;;2.33;1.00;;;;;;;;;;5026882;28;20439;-66
2023/12/26 06:37:06;;;;;;;3.20;1.08;;;;;;;;;;5026189;28;20433;-68
2023/12/26 06:39:35;;;;;;;1.95;1.15;;;;;;;;;;5026405;28;20437;-67
2023/12/26 06:42:04;;;;;;;3.50;1.20;;;;;;;;;;5027411;28;20428;-67
2023/12/26 06:44:31;;;;;;;3.20;1.40;;;;;;;;;;5024791;28;21044;-68
2023/12/26 06:46:58;;;;;;;2.80;1.00;;;;;;;;;;5026170;28;20438;-67
2023/12/26 06:49:25;;;;;;;3.80;1.20;;;;;;;;;;5028505;28;20819;-67
2023/12/26 06:51:52;;;;;;;1.90;1.10;;;;;;;;;;5026943;28;20419;-67
2023/12/26 06:54:19;;;;;;;1.75;0.90;;;;;;;;;;5025923;28;20438;-67
2023/12/26 06:56:47;;;;;;;2.22;1.10;;;;;;;;;;5025660;28;20462;-66
2023/12/26 06:59:15;;;;;;;2.10;1.10;;;;;;;;;;5027435;28;20430;-67
2023/12/26 07:01:46;;;;;;;3.25;1.30;;;;;;;;;;5025848;28;20777;-67
2023/12/26 07:04:13;;;;;;;1.90;1.10;;;;;;;;;;5029381;28;20426;-67
2023/12/26 07:06:40;;;;;;;2.60;1.10;;;;;;;;;;5024766;28;20858;-68
2023/12/26 07:09:08;;;;;;;2.25;1.00;;;;;;;;;;5026034;28;20905;-68
2023/12/26 07:11:35;;;;;;;3.33;1.20;;;;;;;;;;5026422;28;20827;-68
2023/12/26 07:14:02;;;;;;;3.45;1.10;;;;;;;;;;5025951;28;20437;-68
2023/12/26 07:16:33;;;;;;;3.70;1.20;;;;;;;;;;5025029;28;20850;-68
2023/12/26 07:19:00;;;;;;;3.00;2.20;;;;;;;;;;5026394;28;20986;-67
2023/12/26 07:21:27;;;;;;;4.40;2.28;;;;;;;;;;5031417;28;20418;-68
2023/12/26 07:23:54;;;;;;;3.45;1.30;;;;;;;;;;5023112;28;20453;-67
2023/12/26 07:26:22;;;;;;;3.42;1.30;;;;;;;;;;5023864;28;20442;-66
2023/12/26 07:28:50;;;;;;;2.70;1.20;;;;;;;;;;5025964;28;20952;-67
2023/12/26 07:31:19;;;;;;;4.38;1.30;;;;;;;;;;5023849;28;20906;-68
2023/12/26 07:33:47;;;;;;;3.00;1.30;;;;;;;;;;5024894;28;20435;-68
2023/12/26 07:36:15;;;;;;;3.35;1.33;;;;;;;;;;5026272;28;20781;-68
2023/12/26 07:38:42;;;;;;;2.97;1.25;;;;;;;;;;5026419;28;20819;-68
2023/12/26 07:41:09;;;;;;;3.40;1.50;;;;;;;;;;5026004;28;20805;-68
2023/12/26 07:43:36;;;;;;;2.45;1.30;;;;;;;;;;5026586;28;20430;-67
2023/12/26 07:46:06;;;;;;;2.53;1.40;;;;;;;;;;5027274;28;20782;-67
2023/12/26 07:48:33;;;;;;;4.50;1.60;;;;;;;;;;5025240;28;20912;-68
2023/12/26 07:51:01;;;;;;;3.10;1.15;;;;;;;;;;5023788;28;20443;-67
2023/12/26 07:53:28;;;;;;;2.90;1.50;;;;;;;;;;5023632;28;20438;-68
2023/12/26 07:55:55;;;;;;;3.30;1.40;;;;;;;;;;5026570;28;20419;-67
2023/12/26 07:58:23;;;;;;;4.65;1.25;;;;;;;;;;5025465;28;20517;-67
2023/12/26 08:00:50;;;;;;;3.53;1.20;;;;;;;;;;5023757;28;20723;-68
2023/12/26 08:03:17;;;;;;;3.65;1.40;;;;;;;;;;5021350;28;20517;-68
2023/12/26 08:05:44;;;;;;;2.92;1.63;;;;;;;;;;5026170;28;20946;-68
2023/12/26 08:08:13;;;;;;;3.40;1.65;;;;;;;;;;5024176;28;20439;-69
2023/12/26 08:10:41;;;;;;;5.97;1.40;;;;;;;;;;5022350;28;20441;-69
2023/12/26 08:13:09;;;;;;;5.05;1.30;;;;;;;;;;5025983;28;20477;-69
2023/12/26 08:15:36;;;;;;;3.40;1.40;;;;;;;;;;5020272;28;20424;-68
2023/12/26 08:18:04;;;;;;;4.05;1.67;;;;;;;;;;5025698;28;20431;-68
2023/12/26 08:20:33;;;;;;;4.90;2.67;;;;;;;;;;5027017;28;20427;-65
2023/12/26 08:23:00;;;;;;;5.88;3.00;;;;;;;;;;5028740;28;20422;-65
2023/12/26 08:25:28;;;;;;;6.78;3.30;;;;;;;;;;5024615;28;20936;-66
2023/12/26 08:27:56;;;;;;;5.17;2.70;;;;;;;;;;5022227;28;20439;-65
2023/12/26 08:30:23;;;;;;;6.45;3.85;;;;;;;;;;5023571;28;20514;-68
2023/12/26 08:32:50;;;;;;;9.27;5.38;;;;;;;;;;5023704;28;20446;-68
2023/12/26 08:35:17;;;;;;;7.18;5.05;;;;;;;;;;5031312;28;20423;-68
2023/12/26 08:37:44;;;;;;;6.57;4.10;;;;;;;;;;5027444;28;20456;-68
2023/12/26 08:40:11;;;;;;;5.05;2.72;;;;;;;;;;5028229;28;20431;-69
2023/12/26 08:42:40;;;;;;;5.38;2.60;;;;;;;;;;5029422;28;20509;-69
2023/12/26 08:45:07;;;;;;;6.55;2.33;;;;;;;;;;5027675;28;20505;-68
2023/12/26 08:47:34;;;;;;;6.72;3.20;;;;;;;;;;5026463;28;20438;-69
2023/12/26 08:50:01;;;;;;;7.47;4.40;;;;;;;;;;5028798;28;20905;-69
2023/12/26 08:52:29;;;;;;;11.70;6.00;;;;;;;;;;5027503;28;20483;-69
2023/12/26 08:54:56;;;;;;;14.13;7.75;;;;;;;;;;5026855;28;20465;-69
2023/12/26 08:57:23;;;;;;;9.52;4.20;;;;;;;;;;5031322;28;20873;-63
2023/12/26 08:59:51;;;;;;;4.80;3.00;;;;;;;;;;5026182;28;20422;-64
2023/12/26 09:02:18;;;;;;;4.97;2.30;;;;;;;;;;5036703;28;20419;-64
2023/12/26 09:04:46;;;;;;;3.63;2.00;;;;;;;;;;5031323;28;20839;-64
2023/12/26 09:07:13;;;;;;;3.25;1.50;;;;;;;;;;5027431;28;20430;-69
2023/12/26 09:09:40;;;;;;;3.55;1.45;;;;;;;;;;5026607;28;20811;-69
2023/12/26 09:12:07;;;;;;;4.60;1.37;;;;;;;;;;5029875;28;20422;-68
2023/12/26 09:14:36;;;;;;;3.20;1.20;;;;;;;;;;5027536;28;20418;-69
2023/12/26 09:17:05;;;;;;;4.10;1.30;;;;;;;;;;5027549;28;20492;-68
2023/12/26 09:19:32;;;;;;;2.42;1.50;;;;;;;;;;5029263;28;20825;-68
2023/12/26 09:21:59;;;;;;;3.70;1.90;;;;;;;;;;5027661;28;20442;-69
2023/12/26 09:24:26;;;;;;;3.65;1.80;;;;;;;;;;5027748;28;20514;-69
2023/12/26 09:26:53;;;;;;;3.25;1.40;;;;;;;;;;5033649;28;20475;-68
2023/12/26 09:29:21;;;;;;;3.90;1.60;;;;;;;;;;5035983;28;20693;-69
2023/12/26 09:31:48;;;;;;;4.43;1.60;;;;;;;;;;5027198;28;20426;-69
2023/12/26 09:34:17;;;;;;;5.70;1.70;;;;;;;;;;5026456;28;20426;-69
2023/12/26 09:36:44;;;;;;;6.55;3.08;;;;;;;;;;5025880;28;20446;-68
2023/12/26 09:39:11;;;;;;;6.72;3.10;;;;;;;;;;5060453;22;20441;-72
2023/12/26 09:41:38;;;;;;;7.97;3.50;;;;;;;;;;5043850;28;20485;-72
2023/12/26 09:44:05;;;;;;;7.80;3.53;;;;;;;;;;5038242;28;20425;-71
2023/12/26 09:46:33;;;;;;;5.82;2.67;;;;;;;;;;5042866;28;20422;-72
2023/12/26 09:49:00;;;;;;;5.65;2.67;;;;;;;;;;5027817;28;20860;-71
2023/12/26 09:51:29;;;;;;;5.32;2.75;;;;;;;;;;5019375;28;20525;-72
2023/12/26 09:53:58;;;;;;;6.32;3.00;;;;;;;;;;5022480;28;20757;-72
2023/12/26 09:56:26;;;;;;;6.35;2.78;;;;;;;;;;5015343;28;20509;-72
2023/12/26 09:58:54;;;;;;;3.63;2.08;;;;;;;;;;5019527;28;20487;-72
2023/12/26 10:01:21;;;;;;;3.92;1.95;;;;;;;;;;5020486;28;20961;-71
2023/12/26 10:03:49;;;;;;;3.13;1.90;;;;;;;;;;5023961;28;20545;-70
2023/12/26 10:06:16;;;;;;;5.53;1.90;;;;;;;;;;5009267;28;20795;-72
2023/12/26 10:08:44;;;;;;;7.00;2.20;;;;;;;;;;5015526;28;20443;-72
2023/12/26 10:11:15;;;;;;;3.30;1.40;;;;;;;;;;5017472;28;20430;-71
2023/12/26 10:13:50;;;;;;;3.78;1.83;;;;;;;;;;5020021;28;20455;-70
2023/12/26 10:16:17;;;;;;;3.30;1.55;;;;;;;;;;5015069;28;20437;-69
2023/12/26 10:18:44;;;;;;;3.53;1.40;;;;;;;;;;5016326;28;20449;-70
2023/12/26 10:21:11;;;;;;;3.80;1.40;;;;;;;;;;5009660;28;20414;-70
2023/12/26 10:23:39;;;;;;;4.88;1.70;;;;;;;;;;5014525;28;20441;-69
2023/12/26 10:26:08;;;;;;;3.00;1.50;;;;;;;;;;5024764;28;21144;-70
2023/12/26 10:28:38;;;;;;;5.30;1.65;;;;;;;;;;5023148;28;20483;-69
2023/12/26 10:31:17;;;;;;;5.25;1.75;;;;;;;;;;5021960;28;20441;-70
2023/12/26 10:33:44;;;;;;;2.85;1.40;;;;;;;;;;5023739;28;20426;-70
2023/12/26 10:36:12;;;;;;;4.90;1.73;;;;;;;;;;5022781;28;20480;-70
2023/12/26 10:38:39;;;;;;;3.13;1.40;;;;;;;;;;5020713;28;20996;-71
2023/12/26 10:41:09;;;;;;;3.30;1.30;;;;;;;;;;5025024;28;20780;-70
2023/12/26 10:43:40;;;;;;;4.70;1.42;;;;;;;;;;5021456;28;20434;-71
2023/12/26 10:46:08;;;;;;;3.72;1.30;;;;;;;;;;5023747;28;20419;-70
2023/12/26 10:48:35;;;;;;;6.05;1.60;;;;;;;;;;5018157;28;20418;-70
2023/12/26 10:51:03;;;;;;;4.40;1.60;;;;;;;;;;5022541;28;20516;-70
2023/12/26 10:53:35;;;;;;;2.50;1.50;;;;;;;;;;5023610;28;20438;-69
2023/12/26 10:56:04;;;;;;;3.78;1.50;;;;;;;;;;5025861;28;20747;-71
2023/12/26 10:58:33;;;;;;;4.70;1.50;;;;;;;;;;5021994;28;20512;-71
2023/12/26 11:00:59;;;;;;;5.93;1.90;;;;;;;;;;5015860;28;20442;-70
2023/12/26 13:51:47;;;;;;;5.43;1.88;;;;;;;;;;5014256;28;20398;-72
2023/12/26 13:54:13;;;;;;;5.72;1.90;;;;;;;;;;5019603;28;20420;-71
2023/12/26 13:56:40;;;;;;;5.78;1.98;;;;;;;;;;5010521;28;20872;-70
2023/12/26 13:59:07;;;;;;;5.30;1.90;;;;;;;;;;5022995;28;20432;-72
2023/12/26 14:01:33;;;;;;;4.53;1.77;;;;;;;;;;5018681;28;20893;-72
2023/12/26 14:04:00;;;;;;;8.07;2.05;;;;;;;;;;5011249;28;20457;-72
2023/12/26 14:06:27;;;;;;;4.32;1.55;;;;;;;;;;5023472;28;20470;-72
2023/12/26 14:08:55;;;;;;;5.00;1.70;;;;;;;;;;5009756;28;20582;-72
2023/12/26 14:11:23;;;;;;;8.00;1.70;;;;;;;;;;5012291;28;20423;-72
2023/12/26 14:13:50;;;;;;;5.93;1.75;;;;;;;;;;5011385;28;20841;-72
2023/12/26 14:16:19;;;;;;;5.57;1.88;;;;;;;;;;5009631;28;20420;-72
2023/12/26 14:18:46;;;;;;;5.43;2.03;;;;;;;;;;5011953;28;20965;-72
2023/12/26 14:21:13;;;;;;;5.05;1.70;;;;;;;;;;5009688;28;20494;-72
2023/12/26 14:23:40;;;;;;;5.63;1.80;;;;;;;;;;5014360;28;20607;-72
2023/12/26 14:26:09;;;;;;;6.13;1.67;;;;;;;;;;5017602;28;20831;-72
2023/12/26 14:28:36;;;;;;;6.50;1.92;;;;;;;;;;5017234;28;20435;-71
2023/12/26 14:31:03;;;;;;;4.18;2.38;;;;;;;;;;5016856;28;20994;-71
2023/12/26 14:33:30;;;;;;;7.78;2.60;;;;;;;;;;5013657;28;20452;-72
2023/12/26 14:35:57;;;;;;;5.75;2.00;;;;;;;;;;5009467;28;20424;-71
2023/12/26 14:38:24;;;;;;;5.45;1.80;;;;;;;;;;5010049;28;20455;-72
2023/12/26 14:40:51;;;;;;;3.85;1.90;;;;;;;;;;5010680;28;20749;-71
2023/12/26 14:43:20;;;;;;;5.47;2.30;;;;;;;;;;5004508;28;20741;-71
2023/12/26 14:45:47;;;;;;;6.30;2.40;;;;;;;;;;5017735;28;20452;-71
2023/12/26 14:48:14;;;;;;;5.17;2.50;;;;;;;;;;5009073;28;20424;-71
2023/12/26 14:50:41;;;;;;;5.57;2.10;;;;;;;;;;5014796;28;20490;-71
2023/12/26 14:53:07;;;;;;;6.95;2.20;;;;;;;;;;5023171;28;20449;-72
2023/12/26 14:55:34;;;;;;;6.77;2.50;;;;;;;;;;5010083;28;20765;-72
2023/12/26 14:58:00;;;;;;;8.38;2.50;;;;;;;;;;5018056;28;20412;-71
2023/12/26 15:00:48;;;;;;;5.70;2.22;;;;;;;;;;5011609;28;20433;-71
2023/12/26 15:03:16;;;;;;;4.78;2.00;;;;;;;;;;5014336;28;20420;-71
2023/12/26 15:05:43;;;;;;;10.95;2.63;;;;;;;;;;5011769;28;20645;-71
2023/12/26 15:08:10;;;;;;;5.82;1.90;;;;;;;;;;5011608;28;20896;-71
2023/12/26 15:10:37;;;;;;;4.63;2.05;;;;;;;;;;5020374;28;20479;-71
2023/12/26 15:13:05;;;;;;;5.90;2.40;;;;;;;;;;5021189;28;20432;-72
2023/12/26 15:15:32;;;;;;;7.43;2.37;;;;;;;;;;5008348;28;20599;-71
2023/12/26 15:18:00;;;;;;;9.10;2.65;;;;;;;;;;5009241;28;20424;-71
2023/12/26 15:20:28;;;;;;;6.07;2.80;;;;;;;;;;5010071;28;20528;-71
2023/12/26 15:22:55;;;;;;;5.27;1.90;;;;;;;;;;5017423;28;20815;-71
2023/12/26 15:25:22;;;;;;;5.25;1.80;;;;;;;;;;5015664;28;20465;-72
2023/12/26 15:27:49;;;;;;;6.90;2.30;;;;;;;;;;5011224;28;20907;-72
2023/12/26 15:30:16;;;;;;;6.30;2.20;;;;;;;;;;5019879;28;20430;-71
2023/12/26 15:32:43;;;;;;;7.80;2.15;;;;;;;;;;5008403;28;20425;-71
2023/12/26 15:35:12;;;;;;;7.18;2.45;;;;;;;;;;5012460;28;20442;-72
2023/12/26 15:37:39;;;;;;;8.25;2.80;;;;;;;;;;5012890;28;20892;-71
2023/12/26 15:40:07;;;;;;;6.53;1.90;;;;;;;;;;5009151;28;20547;-71
2023/12/26 15:42:34;;;;;;;7.07;2.30;;;;;;;;;;5008596;28;20858;-71
2023/12/26 15:45:01;;;;;;;6.70;2.23;;;;;;;;;;5020577;28;20432;-71
2023/12/26 15:47:29;;;;;;;4.90;1.70;;;;;;;;;;5014677;28;20430;-71
2023/12/26 15:49:56;;;;;;;7.20;2.60;;;;;;;;;;5006706;28;20532;-71
2023/12/26 15:52:24;;;;;;;6.50;2.13;;;;;;;;;;5013305;28;21477;-71
2023/12/26 15:54:52;;;;;;;6.45;1.90;;;;;;;;;;5014799;28;20798;-71
2023/12/26 15:57:19;;;;;;;6.83;3.10;;;;;;;;;;5024368;28;20488;-71
2023/12/26 15:59:46;;;;;;;6.15;2.40;;;;;;;;;;5014016;28;20432;-71
2023/12/26 16:02:13;;;;;;;7.10;2.50;;;;;;;;;;5013825;28;20485;-72
2023/12/26 16:04:41;;;;;;;6.88;2.40;;;;;;;;;;5008725;28;20423;-72
2023/12/26 16:07:08;;;;;;;4.95;1.95;;;;;;;;;;5008571;28;20424;-71
2023/12/26 16:09:37;;;;;;;8.20;2.20;;;;;;;;;;5014732;28;20855;-71
2023/12/26 16:12:04;;;;;;;5.65;2.22;;;;;;;;;;5023249;28;20444;-71
2023/12/26 16:14:32;;;;;;;6.85;2.08;;;;;;;;;;5018859;28;20417;-72
2023/12/26 16:16:59;;;;;;;8.98;2.40;;;;;;;;;;5009404;28;20503;-71
2023/12/26 16:19:26;;;;;;;8.40;2.30;;;;;;;;;;5016626;28;20528;-71
2023/12/26 16:21:54;;;;;;;5.95;2.00;;;;;;;;;;5017455;28;20860;-71
2023/12/26 16:24:21;;;;;;;7.10;2.30;;;;;;;;;;5014066;28;20507;-71
2023/12/26 16:26:50;;;;;;;9.52;2.50;;;;;;;;;;5020831;28;20430;-71
2023/12/26 16:29:18;;;;;;;5.68;2.40;;;;;;;;;;5056428;22;20444;-69
2023/12/26 16:31:46;;;;;;;4.43;1.80;;;;;;;;;;5083590;28;20429;-68
2023/12/26 16:34:13;;;;;;;6.38;2.00;;;;;;;;;;5089699;28;20409;-70
2023/12/26 16:36:40;;;;;;;5.63;1.95;;;;;;;;;;5088837;28;20935;-69
2023/12/26 16:39:07;;;;;;;6.30;1.80;;;;;;;;;;5078225;28;20435;-69
2023/12/26 16:41:35;;;;;;;5.45;1.92;;;;;;;;;;5078400;28;20513;-69
2023/12/26 16:44:09;;;;;;;5.65;2.10;;;;;;;;;;5068743;28;20423;-69
2023/12/26 16:46:36;;;;;;;7.43;2.58;;;;;;;;;;5071545;28;20412;-69
2023/12/26 16:49:03;;;;;;;5.60;2.40;;;;;;;;;;5075063;28;20541;-68
2023/12/26 16:51:30;;;;;;;5.53;2.25;;;;;;;;;;5073338;28;20432;-70
2023/12/26 16:53:58;;;;;;;5.68;1.95;;;;;;;;;;5074039;28;20867;-69
2023/12/26 16:56:25;;;;;;;6.57;2.00;;;;;;;;;;5067137;28;20417;-69
2023/12/26 16:58:52;;;;;;;6.00;1.90;;;;;;;;;;5070354;28;20488;-70
2023/12/26 17:01:20;;;;;;;7.72;2.60;;;;;;;;;;5074700;28;20432;-68
2023/12/26 17:03:48;;;;;;;10.95;3.22;;;;;;;;;;5068966;28;20423;-69
2023/12/26 17:06:15;;;;;;;7.07;2.60;;;;;;;;;;5076508;28;20435;-69
2023/12/26 17:08:42;;;;;;;7.88;2.60;;;;;;;;;;5072443;28;20692;-69
2023/12/26 17:11:10;;;;;;;8.32;2.78;;;;;;;;;;5068589;28;20425;-68
2023/12/26 17:13:37;;;;;;;8.23;2.58;;;;;;;;;;5071548;28;20760;-68
2023/12/26 17:16:04;;;;;;;7.15;3.10;;;;;;;;;;5068673;28;20691;-69
2023/12/26 17:18:32;;;;;;;5.90;2.40;;;;;;;;;;5075537;28;20405;-69
2023/12/26 17:21:02;;;;;;;7.82;2.30;;;;;;;;;;5072429;28;20429;-69
2023/12/26 17:23:29;;;;;;;7.38;2.83;;;;;;;;;;5071745;28;20434;-69
2023/12/26 17:25:56;;;;;;;9.75;2.90;;;;;;;;;;5069113;28;20887;-69
2023/12/26 17:28:23;;;;;;;6.38;2.53;;;;;;;;;;5068975;28;20502;-69
2023/12/26 17:30:50;;;;;;;6.00;2.65;;;;;;;;;;5068119;28;20751;-69
2023/12/26 17:33:17;;;;;;;7.07;2.60;;;;;;;;;;5068891;28;20416;-68